Time;durP1;ratioP1;P1;durP2;ratioP2;P2;SDS_P1;SDS_P2;PMS_P1;PMS_P2;Temp;Humidity;BMP_temperature;BMP_pressure;BME280_temperature;BME280_humidity;BME280_pressure;Samples;Min_cycle;Max_cycle;Signal;HPM_P1;HPM_P2
2023/06/20 00:01:07;;;;;;;6.13;4.83;;;;;;;18.39;79.93;94793.56;5089735;28;20193;-43
2023/06/20 00:03:34;;;;;;;5.73;5.23;;;;;;;18.40;79.94;94792.59;5081714;28;20201;-45
2023/06/20 00:06:01;;;;;;;7.17;4.83;;;;;;;18.40;80.65;94792.59;5089981;28;20185;-43
2023/06/20 00:08:29;;;;;;;5.23;4.20;;;;;;;18.38;80.86;94787.59;5089341;28;20186;-44
2023/06/20 00:10:55;;;;;;;5.60;5.10;;;;;;;18.38;80.86;94795.34;5089641;28;20193;-44
2023/06/20 00:13:23;;;;;;;5.57;4.87;;;;;;;18.36;80.59;94805.13;5089017;28;20206;-44
2023/06/20 00:15:50;;;;;;;5.33;4.47;;;;;;;18.35;81.04;94800.94;5089489;28;20210;-45
2023/06/20 00:18:18;;;;;;;5.20;4.70;;;;;;;18.29;81.07;94793.88;5089152;28;20243;-43
2023/06/20 00:20:46;;;;;;;9.87;5.40;;;;;;;18.25;81.32;94801.19;5089750;28;20292;-44
2023/06/20 00:23:13;;;;;;;6.97;5.43;;;;;;;18.22;81.20;94796.41;5089403;28;20680;-45
2023/06/20 00:25:41;;;;;;;7.37;4.90;;;;;;;18.17;81.51;94796.13;5088958;28;20230;-45
2023/06/20 00:28:10;;;;;;;5.80;4.57;;;;;;;18.15;81.42;94790.34;5089891;28;20190;-45
2023/06/20 00:30:37;;;;;;;5.23;4.73;;;;;;;18.13;81.32;94796.66;5089028;28;20719;-45
2023/06/20 00:33:04;;;;;;;8.63;5.37;;;;;;;18.11;81.37;94790.88;5089251;28;20205;-46
2023/06/20 00:35:30;;;;;;;5.90;5.30;;;;;;;18.11;81.46;94794.28;5089650;28;20189;-44
2023/06/20 00:37:57;;;;;;;5.57;5.07;;;;;;;18.09;81.42;94790.25;5089188;28;20254;-45
2023/06/20 00:40:24;;;;;;;5.07;4.57;;;;;;;18.06;81.53;94794.03;5088956;28;20618;-45
2023/06/20 00:42:52;;;;;;;6.17;5.00;;;;;;;18.02;81.38;94790.19;5089251;28;20186;-44
2023/06/20 00:45:28;;;;;;;5.37;4.63;;;;;;;17.99;81.56;94786.16;5088533;28;20181;-45
2023/06/20 00:47:57;;;;;;;5.60;4.90;;;;;;;17.99;81.63;94793.94;5091982;28;20197;-45
2023/06/20 00:50:26;;;;;;;7.83;4.87;;;;;;;17.94;82.03;94792.88;5092342;28;20262;-45
2023/06/20 00:52:58;;;;;;;7.67;5.20;;;;;;;17.95;82.28;94786.69;5089631;28;20297;-45
2023/06/20 00:55:25;;;;;;;6.53;5.33;;;;;;;17.89;82.53;94783.06;5088509;28;20202;-45
2023/06/20 00:57:55;;;;;;;9.00;5.33;;;;;;;17.87;82.78;94781.63;5089198;28;20645;-45
2023/06/20 01:00:22;;;;;;;6.00;5.40;;;;;;;17.84;82.88;94777.63;5089670;28;20198;-46
2023/06/20 01:02:49;;;;;;;7.57;5.30;;;;;;;17.79;83.96;94777.38;5092028;28;20186;-47
2023/06/20 01:05:17;;;;;;;5.77;5.23;;;;;;;17.76;84.17;94778.53;5090518;28;20196;-44
2023/06/20 01:07:50;;;;;;;5.87;5.30;;;;;;;17.72;84.35;94781.63;5089940;28;20186;-45
2023/06/20 01:10:26;;;;;;;6.57;5.30;;;;;;;17.65;84.70;94778.94;5088632;28;20208;-45
2023/06/20 01:13:05;;;;;;;6.13;5.53;;;;;;;17.60;85.05;94777.88;5088862;28;20235;-45
2023/06/20 01:15:40;;;;;;;6.30;5.63;;;;;;;17.19;85.52;94724.81;5089933;28;20194;-46
2023/06/20 01:18:13;;;;;;;9.73;5.73;;;;;;;17.48;86.38;94775.72;5092270;28;20636;-43
2023/06/20 01:20:44;;;;;;;6.50;5.13;;;;;;;17.47;87.03;94781.06;5092297;28;20207;-45
2023/06/20 01:23:14;;;;;;;9.13;5.50;;;;;;;17.40;87.19;94775.84;5092265;28;20205;-44
2023/06/20 01:25:47;;;;;;;6.47;5.83;;;;;;;17.40;88.01;94782.75;5092215;28;20260;-46
2023/06/20 01:28:22;;;;;;;5.67;5.03;;;;;;;17.37;88.40;94776.19;5091710;28;20573;-45
2023/06/20 01:30:55;;;;;;;6.60;5.93;;;;;;;17.31;88.78;94776.88;5091933;28;20246;-45
2023/06/20 01:33:26;;;;;;;8.80;5.83;;;;;;;17.26;89.28;94779.97;5092160;28;20194;-46
2023/06/20 01:35:53;;;;;;;6.90;6.20;;;;;;;17.20;89.87;94775.53;5092067;28;20206;-46
2023/06/20 01:38:26;;;;;;;6.17;5.53;;;;;;;16.97;90.14;94747.16;5091562;28;20194;-44
2023/06/20 01:40:54;;;;;;;7.53;5.77;;;;;;;17.00;89.91;94759.72;5091813;28;20242;-43
2023/06/20 01:43:22;;;;;;;6.80;6.10;;;;;;;17.20;89.76;94788.44;5092552;28;20185;-45
2023/06/20 01:45:51;;;;;;;8.30;6.23;;;;;;;17.20;89.58;94792.81;5092352;28;20185;-43
2023/06/20 01:48:20;;;;;;;6.60;5.83;;;;;;;17.16;89.92;94787.19;5091676;28;20201;-46
2023/06/20 01:50:49;;;;;;;6.97;6.00;;;;;;;17.16;89.92;94788.97;5091629;28;20201;-46
2023/06/20 01:53:16;;;;;;;9.00;5.17;;;;;;;17.14;89.72;94796.09;5091950;28;20209;-44
2023/06/20 01:55:47;;;;;;;7.80;6.20;;;;;;;17.13;89.50;94791.91;5091572;28;20193;-46
2023/06/20 01:58:15;;;;;;;6.80;5.90;;;;;;;17.08;89.49;94789.84;5091786;28;20188;-44
2023/06/20 02:00:43;;;;;;;6.10;5.50;;;;;;;17.10;89.18;94795.66;5091305;28;20194;-43
2023/06/20 02:03:11;;;;;;;6.23;5.63;;;;;;;17.10;89.01;94793.06;5092041;28;20186;-45
2023/06/20 02:05:39;;;;;;;6.50;5.90;;;;;;;17.09;89.03;94798.41;5091511;28;20196;-44
2023/06/20 02:08:06;;;;;;;8.00;5.93;;;;;;;17.05;89.21;94801.34;5091638;28;20194;-44
2023/06/20 02:10:35;;;;;;;6.33;5.70;;;;;;;16.95;89.63;94785.28;5091198;28;20181;-43
2023/06/20 02:13:03;;;;;;;12.03;7.23;;;;;;;16.99;90.12;94790.91;5091630;28;20186;-45
2023/06/20 02:15:31;;;;;;;12.10;6.23;;;;;;;16.95;90.71;94787.84;5091320;28;20201;-45
2023/06/20 02:18:02;;;;;;;9.40;7.20;;;;;;;16.92;91.41;94795.16;5091440;28;20724;-45
2023/06/20 02:20:29;;;;;;;7.97;6.27;;;;;;;16.93;91.66;94789.81;5090678;28;20739;-43
2023/06/20 02:22:56;;;;;;;10.07;6.93;;;;;;;16.90;92.27;94785.00;5091233;28;20193;-44
2023/06/20 02:25:27;;;;;;;9.57;7.57;;;;;;;16.90;92.75;94773.88;5091278;28;20314;-45
2023/06/20 02:27:56;;;;;;;10.83;8.27;;;;;;;16.85;93.59;94789.09;5091010;28;20635;-44
2023/06/20 02:30:28;;;;;;;8.10;6.57;;;;;;;16.80;94.13;94787.03;5091093;28;20185;-44
2023/06/20 02:32:58;;;;;;;8.43;7.43;;;;;;;16.76;94.37;94788.34;5091521;28;20182;-44
2023/06/20 02:35:26;;;;;;;11.97;7.57;;;;;;;16.70;94.71;94787.22;5090934;28;20627;-44
2023/06/20 02:37:55;;;;;;;9.80;7.50;;;;;;;16.51;95.21;94761.88;5091290;28;20213;-45
2023/06/20 02:40:25;;;;;;;9.27;7.50;;;;;;;16.67;95.46;94791.94;5091378;28;20652;-44
2023/06/20 02:42:52;;;;;;;8.97;6.63;;;;;;;16.64;95.74;94797.44;5090903;28;20178;-45
2023/06/20 02:45:19;;;;;;;9.97;7.73;;;;;;;16.62;96.24;94799.38;5091030;28;20277;-46
2023/06/20 02:48:01;;;;;;;7.73;6.90;;;;;;;16.54;96.26;94798.47;5090802;28;20239;-45
2023/06/20 02:50:40;;;;;;;12.43;7.37;;;;;;;16.58;96.43;94814.44;5094983;28;20710;-51
2023/06/20 02:53:17;;;;;;;8.60;7.27;;;;;;;16.53;96.83;94812.34;5092019;28;20248;-43
2023/06/20 02:55:49;;;;;;;8.80;7.10;;;;;;;16.56;96.99;94824.91;5090979;28;20254;-43
2023/06/20 02:58:18;;;;;;;10.23;8.07;;;;;;;16.64;97.50;94828.44;5090575;28;20657;-45
2023/06/20 03:00:49;;;;;;;9.17;7.33;;;;;;;16.63;97.16;94829.41;5090983;28;20182;-45
2023/06/20 03:03:22;;;;;;;12.87;6.90;;;;;;;16.61;96.78;94828.75;5090682;28;20269;-44
2023/06/20 03:05:56;;;;;;;9.70;7.47;;;;;;;16.65;96.67;94832.63;5090677;28;20266;-44
2023/06/20 03:08:25;;;;;;;10.43;7.37;;;;;;;16.63;96.84;94835.38;5090626;28;20193;-45
2023/06/20 03:10:53;;;;;;;7.70;6.90;;;;;;;16.61;96.80;94842.47;5090100;28;20247;-43
2023/06/20 03:13:21;;;;;;;12.83;8.00;;;;;;;16.65;96.81;94842.94;5090059;28;20185;-45
2023/06/20 03:15:49;;;;;;;11.30;8.10;;;;;;;16.70;96.72;94849.19;5089983;28;20189;-45
2023/06/20 03:18:18;;;;;;;11.57;8.67;;;;;;;16.73;97.06;94850.66;5090400;28;20769;-44
2023/06/20 03:20:45;;;;;;;10.87;8.23;;;;;;;16.79;96.94;94855.13;5090458;28;20221;-44
2023/06/20 03:23:12;;;;;;;15.17;8.90;;;;;;;16.81;96.81;94853.19;5090186;28;20182;-44
2023/06/20 03:25:40;;;;;;;11.53;8.53;;;;;;;16.85;96.61;94856.25;5090481;28;20465;-47
2023/06/20 03:28:07;;;;;;;11.97;8.07;;;;;;;16.85;96.83;94856.25;5090222;28;20532;-45
2023/06/20 03:30:34;;;;;;;13.40;8.57;;;;;;;16.86;96.58;94853.47;5090973;28;20683;-46
2023/06/20 03:33:02;;;;;;;8.47;7.73;;;;;;;16.87;96.35;94859.44;5091211;28;20614;-47
2023/06/20 03:35:30;;;;;;;12.97;8.77;;;;;;;16.91;96.11;94852.97;5090630;28;20630;-45
2023/06/20 03:37:57;;;;;;;10.23;8.63;;;;;;;17.01;95.49;94861.28;5089403;28;20275;-45
2023/06/20 03:40:24;;;;;;;11.40;7.97;;;;;;;16.82;95.26;94823.00;5089904;28;20246;-44
2023/06/20 03:42:51;;;;;;;10.57;8.10;;;;;;;17.09;94.93;94853.47;5090007;28;20195;-47
2023/06/20 03:45:18;;;;;;;11.47;7.70;;;;;;;17.17;94.61;94855.19;5089806;28;20247;-45
2023/06/20 03:47:45;;;;;;;8.27;7.30;;;;;;;17.27;93.76;94853.97;5089936;28;20235;-45
2023/06/20 03:50:12;;;;;;;10.67;7.53;;;;;;;17.36;93.28;94848.72;5089793;28;20194;-43
2023/06/20 03:52:40;;;;;;;12.83;7.47;;;;;;;17.43;91.65;94847.84;5089621;28;20194;-46
2023/06/20 03:55:08;;;;;;;8.73;7.90;;;;;;;17.42;91.18;94846.25;5089722;28;20231;-46
2023/06/20 03:57:34;;;;;;;9.80;8.10;;;;;;;17.48;91.31;94845.53;5089406;28;20221;-45
2023/06/20 04:00:06;;;;;;;9.37;8.27;;;;;;;17.58;91.38;94849.66;5089243;28;20598;-44
2023/06/20 04:02:33;;;;;;;11.67;8.00;;;;;;;17.66;91.22;94857.31;5069602;28;20182;-47
2023/06/20 04:05:00;;;;;;;13.30;8.73;;;;;;;17.77;90.99;94852.56;5069709;28;20255;-43
2023/06/20 04:07:31;;;;;;;11.43;8.33;;;;;;;17.77;90.92;94862.91;5069773;28;20260;-45
2023/06/20 04:09:59;;;;;;;15.73;8.53;;;;;;;17.83;90.62;94863.97;5074361;28;20239;-45
2023/06/20 04:12:26;;;;;;;10.33;8.60;;;;;;;17.89;90.44;94859.88;5089482;28;20215;-45
2023/06/20 04:14:54;;;;;;;10.93;8.10;;;;;;;17.96;90.20;94861.59;5089799;28;20205;-46
2023/06/20 04:17:20;;;;;;;12.80;9.77;;;;;;;17.95;89.83;94862.53;5089633;28;20206;-44
2023/06/20 04:19:47;;;;;;;12.23;8.70;;;;;;;18.02;89.58;94863.44;5089360;28;20196;-46
2023/06/20 04:22:14;;;;;;;10.70;7.57;;;;;;;18.02;88.59;94860.84;5089150;28;20193;-42
2023/06/20 04:24:41;;;;;;;10.80;7.80;;;;;;;18.12;87.92;94865.75;5089911;28;20195;-43
2023/06/20 04:27:10;;;;;;;8.83;7.60;;;;;;;18.20;87.68;94864.88;5090295;28;20193;-46
2023/06/20 04:29:37;;;;;;;10.40;8.03;;;;;;;18.27;87.45;94869.16;5088759;28;20193;-44
2023/06/20 04:32:04;;;;;;;8.90;8.00;;;;;;;18.29;86.76;94872.34;5088520;28;20181;-44
2023/06/20 04:34:31;;;;;;;8.47;7.50;;;;;;;18.35;86.84;94870.00;5089079;28;20194;-45
2023/06/20 04:37:01;;;;;;;12.83;8.07;;;;;;;18.45;86.52;94871.34;5089250;28;20676;-45
2023/06/20 04:39:29;;;;;;;8.53;7.63;;;;;;;18.62;85.71;94865.94;5079995;28;20197;-46
2023/06/20 04:41:55;;;;;;;11.13;8.10;;;;;;;18.69;85.18;94872.81;5089761;28;20197;-44
2023/06/20 04:44:23;;;;;;;11.03;7.73;;;;;;;18.74;84.89;94870.50;5089265;28;20190;-45
2023/06/20 04:46:50;;;;;;;10.43;8.50;;;;;;;18.86;84.88;94882.97;5089221;28;20193;-46
2023/06/20 04:49:17;;;;;;;9.00;7.37;;;;;;;18.93;84.37;94889.03;5088981;28;20185;-45
2023/06/20 04:51:44;;;;;;;15.53;7.83;;;;;;;18.99;84.22;94883.09;5093864;28;20182;-45
2023/06/20 04:54:11;;;;;;;11.90;8.70;;;;;;;18.91;84.25;94865.06;5078095;28;20206;-44
2023/06/20 04:56:40;;;;;;;12.70;7.93;;;;;;;19.11;83.88;94879.03;5070218;28;20194;-45
2023/06/20 04:59:07;;;;;;;9.33;7.73;;;;;;;19.19;83.90;94889.28;5078175;28;20189;-45
2023/06/20 05:01:37;;;;;;;12.20;8.20;;;;;;;19.28;83.48;94897.72;5090502;28;20186;-46
2023/06/20 05:04:04;;;;;;;9.80;8.50;;;;;;;19.30;82.98;94896.56;5090761;28;20186;-45
2023/06/20 05:06:31;;;;;;;9.30;7.73;;;;;;;19.32;82.80;94901.56;5090274;28;20193;-46
2023/06/20 05:08:59;;;;;;;10.13;8.10;;;;;;;19.39;82.70;94901.63;5090612;28;20303;-45
2023/06/20 05:11:26;;;;;;;11.63;8.60;;;;;;;19.58;82.78;94898.38;5090207;28;20247;-46
2023/06/20 05:13:53;;;;;;;11.30;8.43;;;;;;;19.91;81.21;94900.44;5090404;28;20190;-46
2023/06/20 05:16:19;;;;;;;10.53;8.83;;;;;;;20.19;81.17;94884.81;5090545;28;20186;-45
2023/06/20 05:18:47;;;;;;;10.88;7.88;;;;;;;20.75;79.45;94895.88;5090654;28;20719;-46
2023/06/20 05:21:14;;;;;;;10.48;8.05;;;;;;;21.19;76.44;94872.94;5089633;28;20205;-45
2023/06/20 05:23:41;;;;;;;12.85;8.77;;;;;;;21.65;74.36;94877.41;5090296;28;20196;-47
2023/06/20 05:26:08;;;;;;;12.13;8.13;;;;;;;21.96;73.34;94871.53;5089958;28;20619;-46
2023/06/20 05:28:34;;;;;;;11.82;8.20;;;;;;;22.33;71.79;94877.09;5088541;28;20618;-46
2023/06/20 05:31:01;;;;;;;15.48;8.45;;;;;;;22.54;70.61;94880.22;5090796;28;20744;-45
2023/06/20 05:33:28;;;;;;;11.07;7.57;;;;;;;22.74;69.61;94884.53;5092081;28;20668;-47
2023/06/20 05:35:57;;;;;;;10.20;8.02;;;;;;;22.97;68.54;94887.47;5092295;28;20193;-46
2023/06/20 05:38:24;;;;;;;15.98;8.00;;;;;;;23.29;68.01;94877.00;5091782;28;20731;-47
2023/06/20 05:40:51;;;;;;;15.88;9.10;;;;;;;23.62;66.82;94875.94;5092127;28;20189;-45
2023/06/20 05:43:18;;;;;;;9.73;7.95;;;;;;;24.11;64.97;94882.16;5091833;28;20277;-46
2023/06/20 05:45:45;;;;;;;13.40;8.00;;;;;;;24.48;62.99;94877.75;5092104;28;20246;-45
2023/06/20 05:48:12;;;;;;;10.05;7.53;;;;;;;24.72;62.93;94881.28;5075381;28;20285;-47
2023/06/20 05:50:38;;;;;;;9.55;7.90;;;;;;;24.96;61.90;94882.97;5090891;28;20657;-47
2023/06/20 05:53:07;;;;;;;10.55;7.75;;;;;;;25.05;61.85;94875.63;5091466;28;20263;-47
2023/06/20 05:55:34;;;;;;;10.25;8.18;;;;;;;25.20;61.15;94875.22;5091057;28;20242;-45
2023/06/20 05:58:01;;;;;;;16.17;8.52;;;;;;;25.35;60.31;94870.38;5091338;28;20217;-46
2023/06/20 06:00:28;;;;;;;9.27;7.95;;;;;;;25.57;59.69;94872.44;5090709;28;20197;-45
2023/06/20 06:02:55;;;;;;;11.70;7.85;;;;;;;25.75;59.00;94881.00;5091573;28;20664;-44
2023/06/20 06:05:22;;;;;;;14.18;7.88;;;;;;;25.73;59.83;94884.84;5093111;28;20189;-47
2023/06/20 06:07:49;;;;;;;15.48;8.38;;;;;;;26.13;59.77;94890.25;5094954;28;20189;-44
2023/06/20 06:10:17;;;;;;;11.45;8.20;;;;;;;26.57;57.96;94906.38;5091920;28;20542;-45
2023/06/20 06:12:43;;;;;;;17.58;10.77;;;;;;;26.87;57.02;94908.81;5091581;28;20280;-45
2023/06/20 06:15:12;;;;;;;13.98;8.02;;;;;;;27.14;55.64;94914.31;5090668;28;20610;-45
2023/06/20 06:17:39;;;;;;;17.20;8.77;;;;;;;27.32;54.78;94909.91;5090777;28;20699;-47
2023/06/20 06:20:11;;;;;;;12.52;8.05;;;;;;;27.58;54.62;94911.91;5090298;28;20190;-44
2023/06/20 06:22:39;;;;;;;14.30;8.35;;;;;;;27.40;54.06;94912.94;5090907;28;20186;-45
2023/06/20 06:25:08;;;;;;;15.25;9.27;;;;;;;27.15;54.92;94915.91;5090117;28;20241;-44
2023/06/20 06:27:36;;;;;;;8.88;7.68;;;;;;;27.27;54.74;94908.78;5090611;28;20619;-45
2023/06/20 06:30:03;;;;;;;11.88;8.95;;;;;;;27.52;54.37;94908.41;5090189;28;20178;-45
2023/06/20 06:32:31;;;;;;;14.93;8.18;;;;;;;27.72;53.58;94907.13;5090398;28;20188;-44
2023/06/20 06:34:59;;;;;;;21.15;9.02;;;;;;;27.99;52.60;94907.31;5089560;28;20293;-44
2023/06/20 06:37:27;;;;;;;16.05;9.18;;;;;;;28.26;51.34;94902.16;5089781;28;20230;-45
2023/06/20 06:39:56;;;;;;;12.27;9.32;;;;;;;28.18;51.33;94897.31;5090012;28;20186;-45
2023/06/20 06:42:23;;;;;;;9.68;8.07;;;;;;;28.15;51.90;94898.59;5089948;28;20186;-44
2023/06/20 06:44:52;;;;;;;14.45;9.40;;;;;;;28.24;51.76;94889.25;5089826;28;20197;-43
2023/06/20 06:47:18;;;;;;;11.25;8.05;;;;;;;28.35;51.63;94884.94;5090006;28;20193;-45
2023/06/20 06:49:45;;;;;;;13.45;8.40;;;;;;;28.53;51.41;94893.56;5090051;28;20193;-44
2023/06/20 06:52:12;;;;;;;14.02;8.90;;;;;;;28.71;51.18;94893.25;5091827;28;20204;-47
2023/06/20 06:54:39;;;;;;;12.60;7.80;;;;;;;28.95;51.34;94878.78;5092033;28;20255;-46
2023/06/20 06:57:06;;;;;;;12.77;8.45;;;;;;;29.16;50.52;94892.19;5090643;28;20545;-46
2023/06/20 06:59:33;;;;;;;14.52;8.27;;;;;;;29.35;49.68;94890.78;5088412;28;20762;-44
2023/06/20 07:02:01;;;;;;;11.18;7.93;;;;;;;29.57;49.81;94884.66;5089570;28;20258;-45
2023/06/20 07:04:27;;;;;;;10.70;7.55;;;;;;;29.66;49.18;94891.88;5089717;28;20204;-44
2023/06/20 07:06:54;;;;;;;10.50;7.22;;;;;;;29.67;47.84;94895.31;5089366;28;20251;-45
2023/06/20 07:09:21;;;;;;;13.77;7.72;;;;;;;29.57;48.18;94884.66;5090008;28;20189;-46
2023/06/20 07:11:48;;;;;;;13.52;6.75;;;;;;;29.56;48.74;94885.72;5088948;28;20239;-45
2023/06/20 07:14:14;;;;;;;10.07;7.55;;;;;;;29.59;48.45;94878.09;5090002;28;20251;-46
2023/06/20 07:16:41;;;;;;;13.18;8.07;;;;;;;29.52;48.64;94882.75;5088837;28;20254;-45
2023/06/20 07:19:09;;;;;;;10.23;7.70;;;;;;;29.47;49.43;94875.59;5089658;28;20248;-46
2023/06/20 07:21:36;;;;;;;10.20;7.82;;;;;;;29.50;48.25;94871.69;5088890;28;20190;-45
2023/06/20 07:24:03;;;;;;;8.93;6.72;;;;;;;29.24;48.41;94873.31;5090893;28;20186;-46
2023/06/20 07:26:30;;;;;;;14.27;7.05;;;;;;;29.07;49.09;94875.25;5090667;28;20708;-45
2023/06/20 07:28:57;;;;;;;13.43;7.15;;;;;;;29.22;49.33;94875.38;5088800;28;20246;-45
2023/06/20 07:31:23;;;;;;;9.65;7.20;;;;;;;29.35;48.35;94876.81;5088237;28;20193;-45
2023/06/20 07:33:50;;;;;;;8.80;6.15;;;;;;;29.45;48.10;94882.19;5088850;28;20194;-46
2023/06/20 07:36:18;;;;;;;7.50;5.32;;;;;;;29.69;47.29;94875.53;5089118;28;20664;-44
2023/06/20 07:38:45;;;;;;;8.77;5.78;;;;;;;29.99;45.77;94872.31;5089112;28;20213;-45
2023/06/20 07:41:12;;;;;;;11.55;5.38;;;;;;;30.12;45.90;94868.44;5089172;28;20548;-45
2023/06/20 07:43:38;;;;;;;7.07;5.50;;;;;;;30.26;44.71;94874.06;5088668;28;20607;-45
2023/06/20 07:46:05;;;;;;;6.85;5.05;;;;;;;30.32;44.08;94870.41;5088982;28;20247;-46
2023/06/20 07:48:32;;;;;;;7.72;5.70;;;;;;;30.50;43.21;94874.44;5088580;28;20618;-46
2023/06/20 07:50:59;;;;;;;6.10;5.50;;;;;;;30.67;43.08;94876.88;5088922;28;20186;-45
2023/06/20 07:53:27;;;;;;;8.55;5.40;;;;;;;30.77;41.40;94876.94;5089164;28;20193;-45
2023/06/20 07:55:55;;;;;;;6.13;5.22;;;;;;;30.85;41.10;94873.00;5088570;28;20197;-44
2023/06/20 07:58:22;;;;;;;9.63;5.32;;;;;;;30.76;41.60;94870.06;5088621;28;20213;-43
2023/06/20 08:00:49;;;;;;;6.68;4.68;;;;;;;30.42;41.69;94878.38;5088729;28;20247;-45
2023/06/20 08:03:21;;;;;;;5.78;5.00;;;;;;;30.13;41.29;94882.41;5089301;28;20186;-43
2023/06/20 08:05:48;;;;;;;8.07;5.45;;;;;;;30.16;40.93;94880.09;5088573;28;20194;-45
2023/06/20 08:08:15;;;;;;;8.27;5.47;;;;;;;30.17;41.62;94886.16;5089011;28;20201;-44
2023/06/20 08:10:43;;;;;;;7.57;5.10;;;;;;;30.31;42.39;94884.66;5088875;28;20193;-46
2023/06/20 08:13:09;;;;;;;6.38;5.22;;;;;;;30.54;41.88;94886.09;5088944;28;20212;-45
2023/06/20 08:15:36;;;;;;;5.43;4.70;;;;;;;30.66;42.58;94884.03;5088679;28;20571;-44
2023/06/20 08:18:03;;;;;;;7.43;6.10;;;;;;;30.84;42.80;94884.63;5088921;28;20252;-45
2023/06/20 08:20:30;;;;;;;6.40;5.25;;;;;;;30.97;41.88;94884.94;5088768;28;20254;-45
2023/06/20 08:22:57;;;;;;;6.38;4.97;;;;;;;30.97;40.09;94879.66;5088928;28;20192;-44
2023/06/20 08:25:24;;;;;;;6.18;4.82;;;;;;;31.19;41.28;94881.28;5089835;28;20229;-46
2023/06/20 08:27:52;;;;;;;5.57;5.07;;;;;;;31.28;41.06;94881.53;5092630;28;20205;-44
2023/06/20 08:30:19;;;;;;;6.15;5.55;;;;;;;31.50;41.13;94879.47;5092512;28;20645;-44
2023/06/20 08:32:47;;;;;;;6.95;4.78;;;;;;;31.68;39.39;94883.44;5093028;28;20198;-45
2023/06/20 08:35:14;;;;;;;7.97;5.53;;;;;;;31.73;38.07;94888.72;5093345;28;20208;-46
2023/06/20 08:37:42;;;;;;;9.63;5.50;;;;;;;31.42;37.95;94883.41;5092489;28;20194;-46
2023/06/20 08:40:12;;;;;;;5.43;4.93;;;;;;;31.24;38.94;94883.91;5092466;28;20776;-45
2023/06/20 08:42:40;;;;;;;5.57;4.93;;;;;;;31.33;39.21;94892.16;5092545;28;20221;-45
2023/06/20 08:45:10;;;;;;;6.75;4.85;;;;;;;31.43;38.56;94897.44;5092324;28;20198;-45
2023/06/20 08:47:37;;;;;;;5.53;4.50;;;;;;;31.30;39.20;94890.81;5092092;28;20656;-46
2023/06/20 08:50:04;;;;;;;7.50;5.38;;;;;;;31.38;39.40;94895.56;5091601;28;20617;-46
2023/06/20 08:52:32;;;;;;;5.18;4.75;;;;;;;31.25;39.47;94888.13;5093802;28;20198;-46
2023/06/20 08:55:00;;;;;;;8.10;5.35;;;;;;;31.34;40.16;94899.00;5093200;28;20198;-45
2023/06/20 08:57:27;;;;;;;8.38;5.80;;;;;;;31.42;39.75;94891.34;5092554;28;20197;-46
2023/06/20 08:59:56;;;;;;;6.18;5.20;;;;;;;31.37;40.77;94890.56;5095326;28;20221;-45
2023/06/20 09:02:24;;;;;;;6.72;4.80;;;;;;;31.39;39.34;94891.09;5092273;28;20217;-47
2023/06/20 09:05:02;;;;;;;5.60;5.10;;;;;;;31.48;40.39;94884.25;5092746;28;20204;-46
2023/06/20 09:07:35;;;;;;;5.57;5.10;;;;;;;31.53;40.04;94894.81;5089866;28;20217;-49
2023/06/20 09:10:02;;;;;;;7.05;5.35;;;;;;;31.43;40.25;94892.97;5093219;28;20236;-45
2023/06/20 09:12:29;;;;;;;7.68;5.53;;;;;;;31.38;40.99;94889.50;5093285;28;20198;-47
2023/06/20 09:14:56;;;;;;;5.47;4.55;;;;;;;31.30;41.35;94888.16;5093515;28;20295;-46
2023/06/20 09:17:24;;;;;;;5.18;4.78;;;;;;;31.11;41.62;94887.06;5092727;28;20645;-43
2023/06/20 09:19:51;;;;;;;5.70;5.20;;;;;;;30.88;42.60;94875.94;5091746;28;20225;-45
2023/06/20 09:22:19;;;;;;;7.30;5.43;;;;;;;30.78;43.16;94883.00;5091726;28;20205;-45
2023/06/20 09:24:47;;;;;;;6.03;5.43;;;;;;;30.91;43.08;94883.31;5091749;28;20189;-45
2023/06/20 09:27:13;;;;;;;5.85;5.25;;;;;;;31.03;42.33;94877.78;5091850;28;20652;-46
2023/06/20 09:29:51;;;;;;;6.55;5.28;;;;;;;31.16;41.85;94887.06;5091727;28;20649;-44
2023/06/20 09:32:20;;;;;;;8.15;5.45;;;;;;;31.30;41.26;94885.53;5092011;28;20186;-45
2023/06/20 09:34:48;;;;;;;6.32;5.72;;;;;;;31.19;40.76;94884.69;5091552;28;20672;-43
2023/06/20 09:37:17;;;;;;;6.20;5.25;;;;;;;30.96;41.12;94883.34;5088408;28;20197;-45
2023/06/20 09:39:44;;;;;;;6.50;5.53;;;;;;;30.84;40.92;94877.50;5091154;28;20213;-45
2023/06/20 09:42:13;;;;;;;7.85;5.65;;;;;;;30.85;41.86;94870.38;5091450;28;20193;-44
2023/06/20 09:44:40;;;;;;;7.03;5.15;;;;;;;30.96;41.92;94866.72;5090664;28;20216;-45
2023/06/20 09:47:07;;;;;;;5.65;5.15;;;;;;;31.09;41.58;94876.78;5091672;28;20209;-47
2023/06/20 09:49:36;;;;;;;6.10;5.47;;;;;;;31.06;41.66;94869.34;5089721;28;20672;-44
2023/06/20 09:52:07;;;;;;;6.03;5.30;;;;;;;30.76;42.10;94870.06;5090662;28;20223;-43
2023/06/20 09:54:44;;;;;;;6.07;4.93;;;;;;;30.91;41.45;94866.66;5091073;28;20185;-44
2023/06/20 09:57:16;;;;;;;6.32;5.40;;;;;;;31.07;42.06;94870.16;5088054;28;20588;-46
2023/06/20 09:59:44;;;;;;;7.05;5.57;;;;;;;31.15;41.93;94872.28;5088500;28;20210;-46
2023/06/20 10:02:11;;;;;;;5.63;5.13;;;;;;;31.22;42.29;94873.63;5088960;28;20657;-45
2023/06/20 10:04:42;;;;;;;6.78;6.00;;;;;;;31.11;41.66;94864.06;5088538;28;20739;-45
2023/06/20 10:07:14;;;;;;;6.07;5.47;;;;;;;30.82;41.65;94833.91;5088525;28;20206;-46
2023/06/20 10:09:42;;;;;;;7.28;5.30;;;;;;;30.84;42.38;94847.66;5088218;28;20265;-45
2023/06/20 10:12:10;;;;;;;7.32;5.68;;;;;;;30.88;41.71;94865.38;5088648;28;20300;-45
2023/06/20 10:14:37;;;;;;;10.10;5.55;;;;;;;30.81;42.37;94850.81;5085965;28;20196;-44
2023/06/20 10:17:08;;;;;;;7.88;5.15;;;;;;;30.72;43.09;94859.25;5090402;28;20228;-43
2023/06/20 10:19:47;;;;;;;5.93;5.25;;;;;;;30.73;43.64;94863.47;5089754;28;20210;-44
2023/06/20 10:22:32;;;;;;;5.40;4.93;;;;;;;30.81;42.88;94864.81;5088394;28;20280;-44
2023/06/20 10:25:03;;;;;;;6.25;5.22;;;;;;;30.84;42.43;94863.50;5090105;28;20285;-43
2023/06/20 10:27:29;;;;;;;6.05;5.00;;;;;;;30.93;42.74;94864.56;5087816;28;20576;-45
2023/06/20 10:29:56;;;;;;;8.10;5.32;;;;;;;30.98;42.35;94864.59;5090760;28;20198;-46
2023/06/20 10:32:23;;;;;;;5.63;5.13;;;;;;;31.03;41.96;94856.66;5091545;28;20208;-45
2023/06/20 10:34:52;;;;;;;5.60;5.10;;;;;;;31.03;40.55;94842.66;5090875;28;20200;-45
2023/06/20 10:37:38;;;;;;;5.22;4.82;;;;;;;31.08;40.52;94856.66;5087653;28;20201;-48
2023/06/20 10:40:07;;;;;;;5.90;5.40;;;;;;;31.12;41.26;94865.66;5083102;28;20228;-45
2023/06/20 10:42:39;;;;;;;6.20;5.28;;;;;;;31.17;42.40;94859.59;5088885;28;20196;-45
2023/06/20 10:45:19;;;;;;;7.80;6.03;;;;;;;31.03;40.62;94824.16;5090652;28;20232;-49
2023/06/20 10:47:46;;;;;;;5.68;5.07;;;;;;;30.98;41.76;94856.66;5089262;28;20193;-44
2023/06/20 10:50:14;;;;;;;7.07;5.32;;;;;;;30.78;42.88;94857.41;5090277;28;20190;-47
2023/06/20 10:52:42;;;;;;;5.60;5.18;;;;;;;30.61;41.84;94854.94;5090623;28;20178;-46
2023/06/20 10:55:09;;;;;;;11.02;5.75;;;;;;;30.40;42.41;94850.66;5090721;28;20201;-46
2023/06/20 10:57:36;;;;;;;6.10;5.10;;;;;;;30.19;42.86;94834.72;5090357;28;20286;-46
2023/06/20 11:00:13;;;;;;;5.57;5.07;;;;;;;29.99;43.86;94847.78;5090554;28;20213;-45
2023/06/20 11:02:40;;;;;;;5.47;4.97;;;;;;;29.96;44.26;94843.78;5089159;28;20705;-48
2023/06/20 11:05:09;;;;;;;6.90;5.55;;;;;;;29.73;44.50;94812.56;5090986;28;20212;-43
2023/06/20 11:07:36;;;;;;;5.70;5.20;;;;;;;29.98;44.65;94839.06;5092776;28;20197;-46
2023/06/20 11:10:16;;;;;;;6.10;5.45;;;;;;;30.09;43.94;94832.00;5092032;28;20676;-44
2023/06/20 11:12:43;;;;;;;6.78;6.00;;;;;;;30.15;43.82;94828.38;5089576;28;20808;-43
2023/06/20 11:15:24;;;;;;;9.60;5.22;;;;;;;30.37;44.08;94827.41;5089275;28;20185;-44
2023/06/20 11:17:52;;;;;;;6.57;5.97;;;;;;;30.53;43.64;94829.06;5087026;28;20189;-46
2023/06/20 11:20:20;;;;;;;8.25;5.55;;;;;;;30.56;42.43;94809.25;5089747;28;20206;-43
2023/06/20 11:22:48;;;;;;;7.35;5.35;;;;;;;30.79;42.70;94840.53;5089628;28;20189;-45
2023/06/20 11:25:23;;;;;;;6.40;5.35;;;;;;;30.76;42.60;94832.31;5089695;28;20623;-45
2023/06/20 11:27:50;;;;;;;6.82;5.25;;;;;;;30.63;42.07;94837.00;5086690;28;20262;-45
2023/06/20 11:30:23;;;;;;;8.07;5.60;;;;;;;30.40;42.58;94816.34;5086474;28;20188;-44
2023/06/20 11:33:03;;;;;;;5.65;5.13;;;;;;;30.40;42.37;94830.34;5086184;28;20194;-46
2023/06/20 11:35:43;;;;;;;6.07;5.47;;;;;;;30.31;43.45;94828.44;5088200;28;20188;-45
2023/06/20 11:38:13;;;;;;;5.32;4.80;;;;;;;30.37;42.76;94803.66;5089543;28;20541;-43